createdAt,value
2017-05-05T00:00:54.782Z,24.76
2017-05-05T00:01:57.151Z,24.68
2017-05-05T00:03:00.111Z,24.81
2017-05-05T00:04:02.486Z,24.86
2017-05-05T00:05:05.055Z,24.77
2017-05-05T00:06:07.413Z,24.78
2017-05-05T00:07:09.777Z,24.73
2017-05-05T00:08:12.693Z,24.80
2017-05-05T00:09:15.050Z,24.77
2017-05-05T00:10:17.417Z,24.74
2017-05-05T00:11:19.774Z,24.76
2017-05-05T00:12:22.157Z,24.65
2017-05-05T00:13:25.103Z,24.61
2017-05-05T00:14:27.454Z,24.63
2017-05-05T00:15:29.820Z,24.66
2017-05-05T00:16:32.182Z,24.69
2017-05-05T00:17:34.540Z,24.63
2017-05-05T00:18:37.451Z,24.66
2017-05-05T00:19:39.809Z,24.69
2017-05-05T00:20:42.166Z,24.70
2017-05-05T00:21:44.525Z,24.53
2017-05-05T00:22:46.886Z,24.65
2017-05-05T00:23:49.852Z,24.54
2017-05-05T00:24:52.206Z,24.57
2017-05-05T00:25:54.570Z,24.53
2017-05-05T00:26:56.929Z,24.47
2017-05-05T00:27:59.286Z,24.50
2017-05-05T00:29:02.251Z,24.47
2017-05-05T00:30:04.622Z,24.50
2017-05-05T00:31:06.989Z,24.50
2017-05-05T00:32:09.346Z,24.51
2017-05-05T00:33:11.700Z,24.43
2017-05-05T00:34:14.663Z,24.58
2017-05-05T00:35:17.018Z,24.54
2017-05-05T00:36:19.385Z,24.51
2017-05-05T00:37:21.747Z,24.53
2017-05-05T00:38:24.113Z,24.61
2017-05-05T00:39:27.071Z,24.57
2017-05-05T00:40:29.435Z,24.51
2017-05-05T00:41:31.797Z,24.54
2017-05-05T00:42:34.152Z,24.58
2017-05-05T00:43:36.529Z,24.53
2017-05-05T00:44:39.498Z,24.45
2017-05-05T00:45:41.855Z,24.47
2017-05-05T00:46:44.220Z,24.57
2017-05-05T00:47:46.583Z,24.54
2017-05-05T00:48:48.964Z,24.50
2017-05-05T00:49:51.919Z,24.57
2017-05-05T00:50:54.278Z,24.58
2017-05-05T00:51:56.641Z,24.55
2017-05-05T00:52:59.001Z,24.54
2017-05-05T00:54:01.366Z,24.54
2017-05-05T00:55:04.332Z,24.55
2017-05-05T00:56:06.696Z,24.53
2017-05-05T00:57:09.055Z,24.60
2017-05-05T00:58:11.410Z,24.53
2017-05-05T00:59:13.779Z,24.57
2017-05-05T01:00:16.689Z,24.55
2017-05-05T01:01:19.056Z,24.48
2017-05-05T01:02:21.408Z,24.54
2017-05-05T01:03:23.774Z,24.50
2017-05-05T01:04:26.144Z,24.51
2017-05-05T01:05:29.108Z,24.54
2017-05-05T01:06:31.465Z,24.47
2017-05-05T01:07:33.824Z,24.51
2017-05-05T01:08:36.191Z,24.53
2017-05-05T01:09:38.553Z,24.53
2017-05-05T01:10:41.513Z,24.47
2017-05-05T01:11:43.873Z,24.53
2017-05-05T01:12:46.245Z,24.39
2017-05-05T01:13:48.609Z,24.40
2017-05-05T01:14:50.963Z,24.43
2017-05-05T01:15:53.961Z,24.48
2017-05-05T01:16:56.322Z,24.45
2017-05-05T01:17:58.681Z,24.47
2017-05-05T01:19:01.048Z,24.48
2017-05-05T01:20:03.414Z,24.48
2017-05-05T01:21:06.374Z,24.47
2017-05-05T01:22:08.747Z,24.42
2017-05-05T01:23:11.097Z,24.39
2017-05-05T01:24:13.459Z,24.47
2017-05-05T01:25:15.843Z,24.45
2017-05-05T01:26:18.753Z,24.43
2017-05-05T01:27:21.106Z,24.40
2017-05-05T01:28:23.464Z,24.43
2017-05-05T01:29:25.836Z,24.43
2017-05-05T01:30:28.225Z,24.50
2017-05-05T01:31:31.187Z,24.47
2017-05-05T01:32:33.550Z,24.47
2017-05-05T01:33:35.909Z,24.50
2017-05-05T01:34:38.282Z,24.43
2017-05-05T01:35:40.660Z,24.50
2017-05-05T01:36:43.573Z,24.48
2017-05-05T01:37:45.938Z,24.51
2017-05-05T01:38:48.289Z,24.48
2017-05-05T01:39:50.657Z,24.53
2017-05-05T01:40:53.015Z,24.47
2017-05-05T01:41:55.939Z,24.45
2017-05-05T01:42:58.294Z,24.48
2017-05-05T01:44:00.664Z,24.42
2017-05-05T01:45:03.021Z,24.45
2017-05-05T01:46:05.403Z,24.39
2017-05-05T01:47:08.374Z,24.42
2017-05-05T01:48:10.733Z,24.38
2017-05-05T01:49:13.088Z,24.32
2017-05-05T01:50:15.453Z,24.33
2017-05-05T01:51:17.815Z,24.35
2017-05-05T01:52:20.776Z,24.42
2017-05-05T01:53:23.137Z,24.32
2017-05-05T01:54:25.493Z,24.43
2017-05-05T01:55:27.853Z,24.29
2017-05-05T01:56:30.225Z,24.35
2017-05-05T01:57:33.178Z,24.30
2017-05-05T01:58:35.532Z,24.29
2017-05-05T01:59:37.905Z,24.28
2017-05-05T02:00:40.270Z,24.30
2017-05-05T02:01:42.633Z,24.35
2017-05-05T02:02:45.602Z,24.33
2017-05-05T02:03:47.963Z,24.30
2017-05-05T02:04:50.323Z,24.45
2017-05-05T02:05:52.684Z,24.39
2017-05-05T02:06:55.052Z,24.36
2017-05-05T02:07:58.228Z,24.35
2017-05-05T02:09:00.792Z,24.43
2017-05-05T02:10:03.346Z,24.36
2017-05-05T02:11:05.710Z,24.40
2017-05-05T02:12:08.074Z,24.42
2017-05-05T02:13:11.039Z,24.45
2017-05-05T02:14:13.397Z,24.39
2017-05-05T02:15:15.771Z,24.38
2017-05-05T02:16:18.139Z,24.43
2017-05-05T02:17:20.489Z,24.43
2017-05-05T02:18:23.468Z,24.38
2017-05-05T02:19:25.824Z,24.40
2017-05-05T02:20:28.183Z,24.40
2017-05-05T02:21:30.560Z,24.40
2017-05-05T02:22:32.911Z,24.32
2017-05-05T02:23:35.827Z,24.45
2017-05-05T02:24:38.183Z,24.45
2017-05-05T02:25:40.548Z,24.35
2017-05-05T02:26:42.935Z,24.45
2017-05-05T02:27:45.286Z,24.45
2017-05-05T02:28:48.253Z,24.45
2017-05-05T02:29:50.622Z,24.45
2017-05-05T02:30:52.989Z,24.43
2017-05-05T02:31:55.364Z,24.43
2017-05-05T02:32:57.727Z,24.45
2017-05-05T02:34:00.683Z,24.47
2017-05-05T02:35:03.042Z,24.47
2017-05-05T02:36:05.407Z,24.43
2017-05-05T02:37:07.764Z,24.45
2017-05-05T02:38:10.138Z,24.48
2017-05-05T02:39:13.045Z,24.45
2017-05-05T02:40:15.403Z,24.51
2017-05-05T02:41:17.790Z,24.38
2017-05-05T02:42:20.147Z,24.51
2017-05-05T02:43:22.495Z,24.51
2017-05-05T02:44:25.478Z,24.43
2017-05-05T02:45:27.903Z,24.43
2017-05-05T02:46:30.463Z,24.28
2017-05-05T02:47:32.848Z,24.35
2017-05-05T02:48:35.214Z,24.42
2017-05-05T02:49:38.174Z,24.42
2017-05-05T02:50:40.533Z,24.28
2017-05-05T02:51:42.904Z,24.35
2017-05-05T02:52:45.261Z,24.39
2017-05-05T02:53:47.627Z,24.39
2017-05-05T02:54:50.599Z,24.39
2017-05-05T02:55:52.945Z,24.36
2017-05-05T02:56:55.304Z,24.36
2017-05-05T02:57:57.920Z,24.42
2017-05-05T02:59:00.407Z,24.30
2017-05-05T03:00:05.274Z,24.36
2017-05-05T03:01:07.728Z,24.32
2017-05-05T03:02:10.245Z,24.32
2017-05-05T03:03:12.626Z,24.30
2017-05-05T03:04:14.947Z,24.20
2017-05-05T03:05:17.903Z,24.30
2017-05-05T03:06:20.258Z,24.17
2017-05-05T03:07:22.622Z,24.13
2017-05-05T03:08:24.993Z,24.23
2017-05-05T03:09:27.360Z,24.23
2017-05-05T03:10:30.319Z,24.21
2017-05-05T03:11:32.696Z,24.23
2017-05-05T03:12:35.053Z,24.17
2017-05-05T03:13:37.415Z,24.18
2017-05-05T03:14:39.783Z,24.10
2017-05-05T03:15:42.740Z,24.13
2017-05-05T03:16:45.098Z,24.08
2017-05-05T03:17:47.460Z,24.05
2017-05-05T03:18:49.821Z,24.03
2017-05-05T03:19:52.186Z,23.96
2017-05-05T03:20:55.149Z,24.02
2017-05-05T03:21:57.507Z,23.98
2017-05-05T03:22:59.872Z,23.99
2017-05-05T03:24:02.248Z,24.02
2017-05-05T03:25:04.599Z,23.92
2017-05-05T03:26:07.569Z,23.95
2017-05-05T03:27:09.926Z,23.96
2017-05-05T03:28:12.299Z,23.95
2017-05-05T03:29:14.660Z,23.93
2017-05-05T03:30:17.023Z,23.95
2017-05-05T03:31:19.975Z,23.88
2017-05-05T03:32:22.337Z,23.93
2017-05-05T03:33:24.696Z,23.83
2017-05-05T03:34:27.054Z,23.84
2017-05-05T03:35:29.414Z,23.84
2017-05-05T03:36:32.377Z,23.87
2017-05-05T03:37:34.740Z,23.87
2017-05-05T03:38:37.099Z,23.88
2017-05-05T03:39:39.456Z,23.88
2017-05-05T03:40:41.816Z,23.87
2017-05-05T03:41:44.775Z,23.83
2017-05-05T03:42:47.123Z,23.87
2017-05-05T03:43:49.489Z,23.92
2017-05-05T03:44:51.856Z,23.88
2017-05-05T03:45:54.215Z,23.81
2017-05-05T03:46:57.185Z,23.81
2017-05-05T03:47:59.539Z,23.81
2017-05-05T03:49:01.903Z,23.84
2017-05-05T03:50:04.255Z,23.80
2017-05-05T03:51:06.614Z,23.78
2017-05-05T03:52:09.527Z,23.83
2017-05-05T03:53:11.892Z,23.83
2017-05-05T03:54:14.261Z,23.80
2017-05-05T03:55:16.612Z,23.77
2017-05-05T03:56:18.974Z,23.81
2017-05-05T03:57:21.897Z,23.77
2017-05-05T03:58:24.239Z,23.78
2017-05-05T03:59:26.601Z,23.73
2017-05-05T04:00:28.963Z,23.77
2017-05-05T04:01:31.322Z,23.73
2017-05-05T04:02:34.294Z,23.73
2017-05-05T04:03:36.652Z,23.66
2017-05-05T04:04:39.018Z,23.71
2017-05-05T04:05:41.381Z,23.61
2017-05-05T04:06:43.743Z,23.59
2017-05-05T04:07:46.701Z,23.68
2017-05-05T04:08:49.258Z,23.66
2017-05-05T04:09:51.634Z,23.55
2017-05-05T04:10:53.994Z,23.62
2017-05-05T04:11:56.348Z,23.63
2017-05-05T04:12:59.310Z,23.66
2017-05-05T04:14:01.679Z,23.65
2017-05-05T04:15:04.032Z,23.73
2017-05-05T04:16:06.399Z,23.58
2017-05-05T04:17:08.759Z,23.65
2017-05-05T04:18:11.817Z,23.68
2017-05-05T04:19:14.171Z,23.65
2017-05-05T04:20:16.528Z,23.73
2017-05-05T04:21:18.889Z,23.71
2017-05-05T04:22:21.249Z,23.73
2017-05-05T04:23:24.210Z,23.68
2017-05-05T04:24:26.575Z,23.71
2017-05-05T04:25:28.929Z,23.76
2017-05-05T04:26:31.298Z,23.77
2017-05-05T04:27:33.655Z,23.81
2017-05-05T04:28:36.619Z,23.84
2017-05-05T04:29:38.985Z,23.86
2017-05-05T04:30:41.345Z,23.92
2017-05-05T04:31:43.705Z,23.88
2017-05-05T04:32:46.064Z,23.95
2017-05-05T04:33:49.044Z,23.96
2017-05-05T04:34:51.396Z,23.87
2017-05-05T04:35:53.763Z,23.93
2017-05-05T04:36:56.117Z,23.92
2017-05-05T04:37:58.481Z,23.93
2017-05-05T04:39:01.440Z,23.92
2017-05-05T04:40:03.808Z,23.91
2017-05-05T04:41:06.165Z,23.92
2017-05-05T04:42:08.521Z,24.05
2017-05-05T04:43:10.891Z,23.99
2017-05-05T04:44:13.804Z,24.02
2017-05-05T04:45:16.167Z,24.08
2017-05-05T04:46:18.525Z,24.05
2017-05-05T04:47:20.889Z,23.95
2017-05-05T04:48:23.250Z,24.03
2017-05-05T04:49:26.217Z,24.02
2017-05-05T04:50:28.580Z,23.95
2017-05-05T04:51:30.942Z,23.98
2017-05-05T04:52:33.303Z,23.96
2017-05-05T04:53:35.663Z,23.95
2017-05-05T04:54:38.613Z,23.93
2017-05-05T04:55:40.976Z,23.91
2017-05-05T04:56:43.327Z,23.95
2017-05-05T04:57:45.686Z,23.99
2017-05-05T04:58:48.043Z,23.96
2017-05-05T04:59:50.999Z,23.96
2017-05-05T05:00:53.359Z,23.92
2017-05-05T05:01:55.723Z,23.88
2017-05-05T05:02:58.081Z,23.84
2017-05-05T05:04:00.443Z,23.87
2017-05-05T05:05:03.408Z,23.88
2017-05-05T05:06:05.766Z,23.92
2017-05-05T05:07:08.125Z,23.99
2017-05-05T05:08:10.479Z,24.01
2017-05-05T05:09:12.840Z,23.99
2017-05-05T05:10:15.799Z,23.98
2017-05-05T05:11:18.173Z,23.99
2017-05-05T05:12:20.530Z,24.03
2017-05-05T05:13:22.891Z,23.99
2017-05-05T05:14:25.249Z,24.05
2017-05-05T05:15:28.209Z,24.02
2017-05-05T05:16:30.566Z,24.08
2017-05-05T05:17:32.930Z,24.03
2017-05-05T05:18:35.288Z,23.98
2017-05-05T05:19:37.663Z,24.01
2017-05-05T05:20:40.620Z,23.95
2017-05-05T05:21:42.985Z,24.06
2017-05-05T05:22:45.338Z,23.98
2017-05-05T05:23:47.696Z,24.02
2017-05-05T05:24:50.060Z,23.98
2017-05-05T05:25:52.967Z,23.96
2017-05-05T05:26:55.325Z,23.98
2017-05-05T05:27:57.696Z,23.99
2017-05-05T05:29:00.061Z,23.96
2017-05-05T05:30:02.408Z,23.93
2017-05-05T05:31:05.368Z,23.91
2017-05-05T05:32:07.728Z,23.84
2017-05-05T05:33:10.088Z,23.88
2017-05-05T05:34:12.448Z,23.88
2017-05-05T05:35:14.813Z,23.83
2017-05-05T05:36:17.788Z,23.83
2017-05-05T05:37:20.141Z,23.83
2017-05-05T05:38:22.500Z,23.73
2017-05-05T05:39:24.856Z,23.77
2017-05-05T05:40:27.225Z,23.71
2017-05-05T05:41:30.283Z,23.71
2017-05-05T05:42:32.644Z,23.66
2017-05-05T05:43:35.012Z,23.65
2017-05-05T05:44:37.373Z,23.68
2017-05-05T05:45:39.737Z,23.65
2017-05-05T05:46:42.652Z,23.59
2017-05-05T05:47:45.010Z,23.61
2017-05-05T05:48:47.365Z,23.59
2017-05-05T05:49:49.728Z,23.55
2017-05-05T05:50:52.109Z,23.55
2017-05-05T05:51:55.057Z,23.51
2017-05-05T05:52:57.418Z,23.56
2017-05-05T05:53:59.772Z,23.58
2017-05-05T05:55:02.135Z,23.58
2017-05-05T05:56:04.489Z,23.59
2017-05-05T05:57:07.453Z,23.51
2017-05-05T05:58:09.814Z,23.56
2017-05-05T05:59:13.380Z,23.59
2017-05-05T06:00:15.734Z,23.58
2017-05-05T06:01:18.094Z,23.59
2017-05-05T06:02:21.050Z,23.58
2017-05-05T06:03:23.410Z,23.59
2017-05-05T06:04:25.771Z,23.55
2017-05-05T06:05:28.127Z,23.65
2017-05-05T06:06:30.482Z,23.58
2017-05-05T06:07:33.554Z,23.68
2017-05-05T06:08:35.912Z,23.61
2017-05-05T06:09:38.279Z,23.68
2017-05-05T06:10:40.640Z,23.69
2017-05-05T06:11:43.009Z,23.69
2017-05-05T06:12:45.974Z,23.61
2017-05-05T06:13:48.332Z,23.54
2017-05-05T06:14:50.688Z,23.56
2017-05-05T06:15:53.040Z,23.55
2017-05-05T06:16:55.399Z,23.55
2017-05-05T06:17:58.469Z,23.41
2017-05-05T06:19:00.833Z,23.41
2017-05-05T06:20:03.190Z,23.47
2017-05-05T06:21:05.570Z,23.44
2017-05-05T06:22:07.928Z,23.34
2017-05-05T06:23:10.874Z,23.37
2017-05-05T06:24:13.236Z,23.34
2017-05-05T06:25:15.648Z,23.32
2017-05-05T06:26:18.005Z,23.31
2017-05-05T06:27:20.364Z,23.23
2017-05-05T06:28:23.328Z,23.27
2017-05-05T06:29:25.687Z,23.25
2017-05-05T06:30:28.049Z,23.24
2017-05-05T06:31:30.405Z,23.25
2017-05-05T06:32:32.765Z,23.25
2017-05-05T06:33:35.734Z,23.24
2017-05-05T06:34:38.090Z,23.21
2017-05-05T06:35:40.458Z,23.25
2017-05-05T06:36:42.811Z,23.24
2017-05-05T06:37:45.165Z,23.18
2017-05-05T06:38:48.139Z,23.21
2017-05-05T06:39:50.495Z,23.24
2017-05-05T06:40:52.855Z,23.21
2017-05-05T06:41:55.209Z,23.24
2017-05-05T06:42:57.575Z,23.24
2017-05-05T06:44:00.545Z,23.28
2017-05-05T06:45:02.898Z,23.25
2017-05-05T06:46:05.264Z,23.24
2017-05-05T06:47:07.627Z,23.23
2017-05-05T06:48:09.990Z,23.25
2017-05-05T06:49:13.048Z,23.20
2017-05-05T06:50:15.408Z,23.23
2017-05-05T06:51:17.764Z,23.15
2017-05-05T06:52:20.129Z,23.23
2017-05-05T06:53:22.488Z,23.17
2017-05-05T06:54:25.648Z,23.15
2017-05-05T06:55:28.008Z,23.21
2017-05-05T06:56:30.365Z,23.23
2017-05-05T06:57:45.461Z,23.18
2017-05-05T06:59:31.628Z,23.10
2017-05-05T07:00:33.999Z,23.15
2017-05-05T07:01:36.352Z,23.20
2017-05-05T07:02:38.731Z,23.13
2017-05-05T07:03:41.085Z,23.24
2017-05-05T07:04:44.055Z,23.27
2017-05-05T07:05:46.417Z,23.28
2017-05-05T07:06:48.769Z,23.27
2017-05-05T07:07:51.137Z,23.27
2017-05-05T07:08:53.490Z,23.27
2017-05-05T07:09:56.449Z,23.32
2017-05-05T07:10:58.805Z,23.40
2017-05-05T07:12:01.172Z,23.34
2017-05-05T07:13:03.523Z,23.43
2017-05-05T07:14:05.878Z,23.50
2017-05-05T07:15:08.839Z,23.47
2017-05-05T07:16:11.190Z,23.48
2017-05-05T07:17:13.551Z,23.48
2017-05-05T07:18:15.908Z,23.43
2017-05-05T07:19:18.271Z,23.55
2017-05-05T07:20:21.180Z,23.55
2017-05-05T07:21:23.535Z,23.55
2017-05-05T07:22:25.902Z,23.51
2017-05-05T07:23:28.263Z,23.50
2017-05-05T07:24:30.623Z,23.58
2017-05-05T07:25:33.596Z,23.55
2017-05-05T07:26:35.955Z,23.46
2017-05-05T07:27:38.304Z,23.50
2017-05-05T07:28:40.669Z,23.47
2017-05-05T07:29:43.032Z,23.50
2017-05-05T07:30:46.090Z,23.50
2017-05-05T07:31:48.446Z,23.41
2017-05-05T07:32:50.815Z,23.48
2017-05-05T07:33:53.186Z,23.44
2017-05-05T07:34:55.542Z,23.43
2017-05-05T07:35:58.508Z,23.46
2017-05-05T07:37:00.865Z,23.34
2017-05-05T07:38:03.221Z,23.34
2017-05-05T07:39:05.581Z,23.37
2017-05-05T07:40:07.935Z,23.36
2017-05-05T07:41:10.899Z,23.34
2017-05-05T07:42:13.265Z,23.28
2017-05-05T07:43:15.628Z,23.23
2017-05-05T07:44:17.977Z,23.24
2017-05-05T07:45:20.341Z,23.10
2017-05-05T07:46:23.305Z,22.96
2017-05-05T07:47:25.654Z,22.99
2017-05-05T07:48:28.009Z,22.98
2017-05-05T07:49:30.372Z,22.99
2017-05-05T07:50:32.730Z,22.90
2017-05-05T07:51:35.696Z,22.83
2017-05-05T07:52:38.051Z,22.80
2017-05-05T07:53:40.415Z,22.80
2017-05-05T07:54:42.769Z,22.70
2017-05-05T07:55:45.127Z,22.39
2017-05-05T07:56:48.196Z,22.39
2017-05-05T07:57:50.545Z,22.41
2017-05-05T07:58:52.905Z,22.43
2017-05-05T07:59:55.275Z,22.43
2017-05-05T08:00:57.621Z,22.47
2017-05-05T08:02:00.586Z,22.47
2017-05-05T08:03:02.941Z,22.47
2017-05-05T08:04:05.301Z,22.43
2017-05-05T08:05:07.655Z,22.41
2017-05-05T08:06:10.008Z,22.38
2017-05-05T08:07:12.974Z,22.38
2017-05-05T08:08:15.331Z,22.50
2017-05-05T08:09:17.684Z,22.44
2017-05-05T08:10:20.039Z,22.44
2017-05-05T08:11:22.414Z,22.41
2017-05-05T08:12:25.369Z,22.41
2017-05-05T08:13:27.731Z,22.43
2017-05-05T08:14:30.086Z,22.48
2017-05-05T08:15:32.451Z,22.48
2017-05-05T08:16:34.809Z,22.51
2017-05-05T08:17:39.674Z,22.55
2017-05-05T08:18:42.030Z,22.51
2017-05-05T08:19:44.398Z,22.62
2017-05-05T08:20:46.761Z,22.59
2017-05-05T08:21:49.119Z,22.54
2017-05-05T08:22:52.078Z,22.57
2017-05-05T08:23:54.438Z,22.59
2017-05-05T08:24:56.790Z,22.63
2017-05-05T08:25:59.151Z,22.65
2017-05-05T08:27:01.515Z,22.76
2017-05-05T08:28:04.471Z,22.66
2017-05-05T08:29:06.829Z,22.70
2017-05-05T08:30:09.193Z,22.70
2017-05-05T08:31:11.557Z,22.62
2017-05-05T08:32:13.910Z,22.63
2017-05-05T08:33:16.979Z,22.57
2017-05-05T08:34:19.337Z,22.57
2017-05-05T08:35:21.699Z,22.59
2017-05-05T08:36:24.054Z,22.55
2017-05-05T08:37:26.413Z,22.53
2017-05-05T08:38:29.378Z,22.57
2017-05-05T08:39:31.732Z,22.55
2017-05-05T08:40:34.087Z,22.54
2017-05-05T08:41:36.449Z,22.55
2017-05-05T08:42:38.818Z,22.57
2017-05-05T08:43:41.876Z,22.57
2017-05-05T08:44:44.228Z,22.63
2017-05-05T08:45:46.590Z,22.57
2017-05-05T08:46:48.946Z,22.60
2017-05-05T08:47:51.303Z,22.62
2017-05-05T08:48:54.263Z,22.63
2017-05-05T08:49:56.621Z,22.55
2017-05-05T08:50:58.979Z,22.55
2017-05-05T08:52:01.355Z,22.60
2017-05-05T08:53:03.706Z,22.65
2017-05-05T08:54:06.670Z,22.63
2017-05-05T08:55:09.034Z,22.72
2017-05-05T08:56:11.395Z,22.66
2017-05-05T08:57:13.750Z,22.63
2017-05-05T08:58:16.106Z,22.70
2017-05-05T08:59:19.070Z,22.68
2017-05-05T09:00:21.433Z,22.73
2017-05-05T09:01:23.791Z,22.65
2017-05-05T09:02:26.152Z,22.70
2017-05-05T09:03:28.503Z,22.65
2017-05-05T09:04:31.574Z,22.62
2017-05-05T09:05:33.932Z,22.68
2017-05-05T09:06:36.294Z,22.66
2017-05-05T09:07:38.651Z,22.69
2017-05-05T09:08:41.010Z,22.66
2017-05-05T09:09:44.072Z,22.57
2017-05-05T09:10:46.427Z,22.55
2017-05-05T09:11:48.799Z,22.55
2017-05-05T09:12:51.148Z,22.60
2017-05-05T09:13:53.509Z,22.57
2017-05-05T09:14:56.459Z,22.60
2017-05-05T09:15:58.821Z,22.63
2017-05-05T09:17:01.183Z,22.69
2017-05-05T09:18:03.541Z,22.72
2017-05-05T09:19:05.896Z,22.72
2017-05-05T09:21:09.429Z,22.73
2017-05-05T09:22:11.789Z,22.80
2017-05-05T09:23:14.162Z,22.75
2017-05-05T09:24:16.521Z,22.75
2017-05-05T09:25:18.880Z,22.83
2017-05-05T09:26:21.842Z,22.83
2017-05-05T09:27:24.203Z,22.87
2017-05-05T09:28:26.570Z,22.87
2017-05-05T09:29:28.931Z,22.83
2017-05-05T09:30:31.290Z,22.91
2017-05-05T09:31:34.250Z,22.84
2017-05-05T09:32:36.609Z,22.88
2017-05-05T09:33:38.972Z,22.85
2017-05-05T09:34:41.326Z,22.88
2017-05-05T09:35:43.687Z,22.96
2017-05-05T09:36:46.746Z,22.99
2017-05-05T09:37:49.110Z,22.91
2017-05-05T09:38:51.474Z,22.96
2017-05-05T09:39:53.840Z,23.00
2017-05-05T09:40:56.186Z,23.00
2017-05-05T09:41:59.146Z,22.93
2017-05-05T09:43:01.504Z,23.05
2017-05-05T09:44:03.864Z,23.06
2017-05-05T09:45:06.220Z,22.99
2017-05-05T09:46:08.579Z,23.00
2017-05-05T09:47:11.632Z,23.03
2017-05-05T09:48:13.988Z,23.00
2017-05-05T09:49:16.359Z,23.03
2017-05-05T09:50:18.719Z,22.96
2017-05-05T09:51:21.072Z,22.99
2017-05-05T09:52:24.036Z,22.98
2017-05-05T09:53:26.399Z,23.05
2017-05-05T09:54:28.754Z,23.08
2017-05-05T09:55:31.119Z,23.00
2017-05-05T09:56:33.484Z,22.96
2017-05-05T09:57:36.439Z,23.00
2017-05-05T09:58:38.806Z,23.03
2017-05-05T09:59:41.172Z,22.96
2017-05-05T10:00:43.526Z,22.96
2017-05-05T10:01:45.884Z,23.05
2017-05-05T10:02:48.854Z,23.05
2017-05-05T10:03:51.209Z,23.03
2017-05-05T10:04:53.564Z,23.02
2017-05-05T10:05:55.935Z,23.08
2017-05-05T10:06:58.287Z,23.05
2017-05-05T10:08:01.243Z,23.00
2017-05-05T10:09:03.600Z,23.08
2017-05-05T10:10:05.964Z,23.08
2017-05-05T10:11:08.328Z,23.09
2017-05-05T10:12:10.691Z,23.00
2017-05-05T10:13:13.644Z,23.08
2017-05-05T10:14:16.001Z,23.09
2017-05-05T10:15:18.352Z,23.06
2017-05-05T10:16:20.716Z,23.06
2017-05-05T10:17:23.069Z,23.09
2017-05-05T10:18:26.034Z,23.06
2017-05-05T10:19:28.390Z,23.15
2017-05-05T10:20:30.758Z,23.10
2017-05-05T10:21:33.115Z,23.06
2017-05-05T10:22:35.480Z,23.09
2017-05-05T10:23:38.446Z,23.12
2017-05-05T10:24:40.815Z,23.12
2017-05-05T10:25:43.173Z,23.10
2017-05-05T10:26:45.528Z,23.06
2017-05-05T10:27:47.886Z,23.09
2017-05-05T10:28:50.942Z,23.17
2017-05-05T10:29:53.299Z,23.10
2017-05-05T10:30:55.652Z,23.05
2017-05-05T10:31:58.011Z,23.09
2017-05-05T10:33:00.372Z,23.09
2017-05-05T10:34:03.333Z,23.20
2017-05-05T10:35:05.695Z,23.12
2017-05-05T10:36:08.045Z,23.12
2017-05-05T10:37:10.407Z,23.20
2017-05-05T10:38:12.962Z,23.06
2017-05-05T10:39:16.022Z,23.15
2017-05-05T10:40:18.383Z,23.13
2017-05-05T10:41:20.740Z,23.12
2017-05-05T10:42:23.098Z,23.08
2017-05-05T10:43:25.467Z,23.10
2017-05-05T10:44:28.420Z,23.10
2017-05-05T10:45:30.780Z,23.09
2017-05-05T10:46:33.140Z,23.18
2017-05-05T10:47:35.492Z,23.13
2017-05-05T10:48:37.854Z,23.09
2017-05-05T10:49:40.818Z,23.08
2017-05-05T10:50:43.174Z,23.05
2017-05-05T10:51:45.549Z,23.17
2017-05-05T10:52:47.911Z,23.06
2017-05-05T10:53:50.281Z,23.10
2017-05-05T10:54:53.225Z,23.09
2017-05-05T10:55:55.589Z,23.09
2017-05-05T10:56:57.945Z,23.09
2017-05-05T10:58:00.313Z,23.18
2017-05-05T10:59:02.669Z,23.06
2017-05-05T11:00:05.579Z,23.06
2017-05-05T11:01:07.934Z,22.98
2017-05-05T11:02:10.300Z,23.13
2017-05-05T11:03:12.654Z,22.98
2017-05-05T11:04:15.018Z,23.05
2017-05-05T11:05:17.974Z,23.03
2017-05-05T11:06:20.332Z,23.09
2017-05-05T11:07:22.692Z,23.12
2017-05-05T11:08:25.052Z,23.06
2017-05-05T11:09:27.411Z,23.03
2017-05-05T11:10:30.373Z,23.06
2017-05-05T11:11:32.723Z,23.10
2017-05-05T11:12:35.084Z,23.06
2017-05-05T11:13:37.438Z,23.02
2017-05-05T11:14:39.798Z,23.06
2017-05-05T11:15:42.761Z,23.03
2017-05-05T11:16:45.111Z,23.10
2017-05-05T11:17:47.474Z,23.05
2017-05-05T11:18:49.835Z,23.05
2017-05-05T11:19:52.191Z,23.06
2017-05-05T11:20:55.149Z,23.06
2017-05-05T11:21:57.517Z,23.00
2017-05-05T11:22:59.880Z,22.99
2017-05-05T11:24:02.238Z,23.06
2017-05-05T11:25:04.597Z,22.98
2017-05-05T11:26:07.558Z,23.05
2017-05-05T11:27:09.918Z,23.06
2017-05-05T11:28:12.279Z,23.08
2017-05-05T11:29:14.636Z,23.09
2017-05-05T11:30:17.005Z,23.15
2017-05-05T11:31:19.964Z,23.09
2017-05-05T11:32:22.332Z,23.13
2017-05-05T11:33:24.690Z,23.15
2017-05-05T11:34:27.048Z,23.10
2017-05-05T11:35:29.425Z,23.08
2017-05-05T11:36:32.436Z,23.10
2017-05-05T11:37:34.793Z,23.05
2017-05-05T11:38:37.164Z,23.10
2017-05-05T11:39:39.521Z,23.10
2017-05-05T11:40:41.901Z,23.09
2017-05-05T11:41:44.856Z,23.12
2017-05-05T11:42:47.212Z,23.13
2017-05-05T11:43:49.568Z,23.09
2017-05-05T11:44:51.927Z,23.10
2017-05-05T11:45:54.285Z,23.09
2017-05-05T11:46:57.196Z,23.10
2017-05-05T11:47:59.565Z,23.05
2017-05-05T11:49:01.919Z,23.13
2017-05-05T11:50:04.280Z,23.09
2017-05-05T11:51:06.645Z,23.12
2017-05-05T11:52:09.552Z,23.12
2017-05-05T11:53:11.925Z,23.06
2017-05-05T11:54:14.279Z,23.08
2017-05-05T11:55:16.637Z,23.12
2017-05-05T11:56:19.033Z,23.05
2017-05-05T11:57:21.915Z,23.10
2017-05-05T11:58:24.269Z,23.10
2017-05-05T11:59:26.634Z,23.13
2017-05-05T12:00:28.995Z,23.15
2017-05-05T12:01:31.357Z,23.17
2017-05-05T12:02:34.323Z,23.18
2017-05-05T12:03:36.689Z,23.15
2017-05-05T12:04:39.050Z,23.17
2017-05-05T12:05:41.416Z,23.17
2017-05-05T12:06:43.777Z,23.23
2017-05-05T12:07:46.756Z,23.15
2017-05-05T12:08:49.112Z,23.20
2017-05-05T12:09:51.482Z,23.23
2017-05-05T12:10:53.853Z,23.23
2017-05-05T12:11:56.224Z,23.18
2017-05-05T12:12:59.186Z,23.34
2017-05-05T12:14:01.560Z,23.24
2017-05-05T12:15:03.910Z,23.28
2017-05-05T12:16:06.274Z,23.23
2017-05-05T12:17:08.645Z,23.31
2017-05-05T12:18:11.616Z,23.27
2017-05-05T12:19:13.972Z,23.23
2017-05-05T12:20:16.338Z,23.23
2017-05-05T12:21:18.702Z,23.32
2017-05-05T12:22:21.073Z,23.27
2017-05-05T12:23:24.037Z,23.23
2017-05-05T12:24:26.401Z,23.18
2017-05-05T12:25:28.753Z,23.17
2017-05-05T12:26:31.124Z,23.17
2017-05-05T12:27:33.479Z,23.15
2017-05-05T12:28:36.437Z,23.00
2017-05-05T12:29:38.795Z,23.10
2017-05-05T12:30:41.158Z,23.06
2017-05-05T12:31:43.525Z,23.03
2017-05-05T12:32:45.884Z,22.96
2017-05-05T12:33:48.858Z,23.06
2017-05-05T12:34:51.217Z,23.05
2017-05-05T12:35:53.589Z,22.99
2017-05-05T12:36:55.949Z,22.98
2017-05-05T12:37:58.317Z,22.98
2017-05-05T12:39:01.278Z,23.06
2017-05-05T12:40:03.648Z,23.05
2017-05-05T12:41:06.011Z,22.98
2017-05-05T12:42:08.370Z,22.99
2017-05-05T12:43:10.732Z,22.99
2017-05-05T12:44:13.698Z,22.98
2017-05-05T12:45:16.049Z,23.02
2017-05-05T12:46:18.419Z,23.09
2017-05-05T12:47:20.779Z,23.12
2017-05-05T12:48:23.142Z,23.06
2017-05-05T12:49:26.099Z,23.12
2017-05-05T12:50:28.466Z,23.10
2017-05-05T12:51:30.837Z,23.06
2017-05-05T12:52:33.202Z,23.08
2017-05-05T12:53:35.565Z,23.12
2017-05-05T12:54:38.536Z,23.25
2017-05-05T12:55:40.885Z,23.21
2017-05-05T12:56:43.254Z,23.24
2017-05-05T12:57:45.615Z,23.24
2017-05-05T12:58:47.984Z,23.24
2017-05-05T12:59:50.963Z,23.21
2017-05-05T13:00:53.319Z,23.21
2017-05-05T13:01:55.688Z,23.31
2017-05-05T13:02:58.045Z,23.32
2017-05-05T13:04:00.407Z,23.21
2017-05-05T13:05:03.371Z,23.23
2017-05-05T13:06:05.735Z,23.24
2017-05-05T13:07:08.110Z,23.23
2017-05-05T13:08:10.480Z,23.24
2017-05-05T13:09:12.839Z,23.27
2017-05-05T13:10:15.808Z,23.17
2017-05-05T13:11:18.166Z,23.25
2017-05-05T13:12:20.535Z,23.20
2017-05-05T13:13:22.899Z,23.23
2017-05-05T13:14:25.267Z,23.21
2017-05-05T13:15:28.227Z,23.18
2017-05-05T13:16:30.591Z,23.20
2017-05-05T13:17:32.956Z,23.17
2017-05-05T13:18:35.316Z,23.20
2017-05-05T13:19:37.709Z,23.15
2017-05-05T13:20:40.655Z,23.20
2017-05-05T13:21:43.022Z,23.10
2017-05-05T13:22:45.381Z,23.17
2017-05-05T13:23:47.756Z,23.06
2017-05-05T13:24:50.113Z,23.05
2017-05-05T13:25:53.073Z,22.98
2017-05-05T13:26:55.430Z,23.10